Tiempo atmosférico en la estación meteorológica de Carrión De Los Céspedes, Sevilla (76 m.)



Fecha
DESCASC
Temp. máxima en grados centígrados (hora)
DESCASC
Temp. mínima en grados centígrados (hora)
DESCASC
Temp. media en grados centígrados
DESCASC
Racha de viento máxima en m/sg (hora)
DESCASC
Velocidad máxima media en intervalos de 10 minutos(hora)
DESCASC
Precipitaciones diarias en mm
DESCASC
Precipitaciones de 00:00 a 06:00 en mm
DESCASC
Precipitaciones de 06:00 a 12:00 en mm
DESCASC
Precipitaciones de 12:00 a 18:00 en mm
DESCASC
Precipitaciones de 18:00 a 24:00 en mm
DESCASC
18-02-2018 19.6 (16:50) 4.7 (03:40) 12.2 6.11 (13:40) 3.33 (12:40) 0 0 0 0 0
17-02-2018 18.4 (16:50) 2 (06:00) 10.2 4.17 (19:00) 2.78 (19:10) 0 0 0 0 0
16-02-2018 22.9 (16:50) 5 (06:10) 13.9 8.33 (15:40) 4.17 (18:30) 0 0 0 0 0
15-02-2018 20.4 (17:30) 2.8 (00:00) 11.6 6.67 (13:20) 3.89 (13:30) 0 0 0 0 0
14-02-2018 16.4 (15:40) 1.1 (00:00) 8.7 7.5 (15:20) 4.44 (15:40) 0 0 0 0 0
13-02-2018 16.2 (16:50) -1.1 (-00:0) 7.6 9.72 (14:40) 4.72 (15:30) 0 0 0 0 0
12-02-2018 17.6 (16:10) 5.1 (00:00) 11.4 11.94 (13:50) 6.67 (13:50) 0 0 0 0 0
11-02-2018 19 (15:50) 0 (00:00) 9.5 9.17 (18:00) 6.11 (18:30) 0 0 0 0 0
10-02-2018 17.2 (17:30) 0.3 (00:00) 8.8 4.44 (15:00) 2.22 (13:20) 0 0 0 0 0
09-02-2018 12.7 (16:10) -2.7 (-00:0) 5 5.28 (15:10) 3.33 (18:10) 0 0 0 0 0
08-02-2018 14.3 (16:50) 1.7 (00:00) 8 9.17 (11:40) 5.28 (11:40) 0 0 0 0 0
07-02-2018 12.9 (17:00) -2.7 (-00:0) 5.1 11.94 (12:20) 8.06 (11:50) 0 0 0 0 0
06-02-2018 14.3 (16:40) 0.7 (00:00) 7.5 8.33 (14:00) 4.72 (14:00) 0 0 0 0 0
05-02-2018 13 (15:50) -1 (-00:0) 6 8.89 (16:30) 4.72 (16:30) 0.4 0 0 0.4 0
04-02-2018 11.1 (15:50) 3.2 (00:00) 7.2 8.33 (04:50) 5.28 (04:40) 1.2 0 0 1.2 0
03-02-2018 16.2 (16:20) -1.9 (-00:0) 7.2 7.22 (17:10) 4.17 (16:50) 0 0 0 0 0
02-02-2018 14.6 (15:50) 1.7 (00:00) 8.2 10.56 (01:10) 5.56 (01:20) 0 0 0 0 0
01-02-2018 15.5 (16:40) 4.7 (00:00) 10.1 11.94 (15:00) 7.22 (14:50) 0 0 0 0 0
31-01-2018 18.9 (15:50) 10.4 (00:00) 14.6 10.28 (14:20) 6.67 (12:00) 0 0 0 0 0
30-01-2018 17.8 (15:40) 10.4 (00:00) 14.1 11.11 (11:00) 7.5 (11:00) 0 0 0 0 0
29-01-2018 19.1 (16:00) 8.2 (00:00) 13.7 15.56 (13:20) 10.83 (13:40) 0 0 0 0 0
28-01-2018 15.9 (15:10) 3.1 (00:00) 9.5 14.72 (15:50) 9.72 (16:10) 0 0 0 0 0
27-01-2018 15.8 (15:30) 3.2 (00:00) 9.5 11.39 (14:50) 6.67 (15:20) 0 0 0 0 0
26-01-2018 15.4 (16:30) 3.2 (00:00) 9.3 6.67 (16:40) 3.89 (11:50) 0 0 0 0 0
25-01-2018 13.2 (14:30) 6.8 (00:00) 10 7.22 (15:30) 4.17 (14:30) 1.4 0 0 1.2 0.2
24-01-2018 18.2 (15:10) 3.9 (00:00) 11.1 4.72 (14:50) 3.33 (17:30) 0 0 0 0 0
23-01-2018 19.7 (16:30) 3.8 (00:00) 11.8 3.33 (13:10) 1.67 (18:10) 0 0 0 0 0
22-01-2018 20.3 (16:50) 4 (00:00) 12.1 4.72 (17:10) 3.61 (17:10) 0 0 0 0 0

Gráficas

Temp. máximas Temp. mínimas Temp. medias Precipitaciones Rachas de viento máximas Velocidades máximas media en intervalos de 10 minutos

Datos horarios

Fecha y hora oficial Temperatura (ºC) Velocidad del viento (km/h) Dirección del viento Racha (km/h) Dirección de racha Precipitación (mm) Presión (hPa) Tendencia (hPa) Humedad (%)
2018-02-20 23:00:00 9.8 5 Noroeste 10 Norte 0 -- -- 71
2018-02-20 22:00:00 11.4 4 Noroeste 14 Norte 0 -- -- 67
2018-02-20 21:00:00 12.2 6 Noroeste 12 Oeste 0 -- -- 62
2018-02-20 20:00:00 15.7 0 Calma 4 Sudoeste 0 -- -- 54
2018-02-20 19:00:00 20 0 Calma 8 Este 0 -- -- 43
2018-02-20 18:00:00 21.5 5 Sur 16 Este 0 -- -- 39
2018-02-20 17:00:00 21.9 9 Este 22 Este 0 -- -- 37
2018-02-20 16:00:00 21.7 10 Este 30 Nordeste 0 -- -- 38
2018-02-20 15:00:00 20.9 8 Este 26 Este 0 -- -- 39
2018-02-20 14:00:00 20.3 14 Este 26 Este 0 -- -- 40
2018-02-20 13:00:00 19.4 17 Este 27 Este 0 -- -- 43
2018-02-20 12:00:00 17.7 15 Este 24 Nordeste 0 -- -- 48
2018-02-20 11:00:00 15 9 Nordeste 15 Norte 0 -- -- 53
2018-02-20 10:00:00 11.3 0 Calma 6 Oeste 0 -- -- 66
2018-02-20 09:00:00 5.2 2 Oeste 6 Oeste 0 -- -- 86
2018-02-20 08:00:00 3.3 3 Oeste 8 Oeste 0 -- -- 85
2018-02-20 07:00:00 3.9 5 Noroeste 8 Noroeste 0 -- -- 82
2018-02-20 06:00:00 4.4 5 Oeste 7 Oeste 0 -- -- 82
2018-02-20 05:00:00 4.4 5 Oeste 7 Oeste 0 -- -- 81
2018-02-20 04:00:00 5.2 4 Noroeste 6 Noroeste 0 -- -- 80
2018-02-20 03:00:00 6 4 Oeste 6 Oeste 0 -- -- 79
2018-02-20 02:00:00 5.5 2 Noroeste 6 Oeste 0 -- -- 78
2018-02-20 01:00:00 6.1 4 Noroeste 6 Oeste 0 -- -- 77
2018-02-20 00:00:00 6.9 3 Noroeste 8 Noroeste 0 -- -- 73
2018-02-19 23:00:00 8.1 7 Noroeste 10 Norte 0 -- -- 70
2018-02-19 22:00:00 8.7 4 Noroeste 11 Norte 0 -- -- 66
2018-02-19 21:00:00 9.9 4 Noroeste 10 Noroeste 0 -- -- 62
2018-02-19 20:00:00 13.6 0 Calma 3 Sur 0 -- -- 52
2018-02-19 19:00:00 17.6 3 Sur 13 Este 0 -- -- 40
2018-02-19 18:00:00 19 7 Este 16 Sudeste 0 -- -- 36
2018-02-19 17:00:00 19.4 8 Sudeste 19 Nordeste 0 -- -- 34
2018-02-19 16:00:00 19.2 8 Sudeste 20 Este 0 -- -- 31
2018-02-19 15:00:00 18.5 9 Este 21 Este 0 -- -- 33
2018-02-19 14:00:00 17.7 11 Este 24 Este 0 -- -- 34
2018-02-19 13:00:00 17 16 Este 24 Este 0 -- -- 38
2018-02-19 12:00:00 15 10 Este 19 Nordeste 0 -- -- 47
2018-02-19 11:00:00 11.8 7 Este 12 Nordeste 0 -- -- 55
2018-02-19 10:00:00 7 0 Calma 5 Nordeste 0 -- -- 71
2018-02-19 09:00:00 5 2 Norte 6 Norte 0 -- -- 76
2018-02-19 08:00:00 4.6 3 Oeste 6 Oeste 0 -- -- 77
2018-02-19 07:00:00 4.7 0 Calma 4 Oeste 0 -- -- 80
2018-02-19 06:00:00 5.4 0 Calma 5 Oeste 0 -- -- 81
2018-02-19 05:00:00 4.6 0 Calma 9 Noroeste 0 -- -- 85
2018-02-19 04:00:00 5.3 3 Noroeste 8 Oeste 0 -- -- 84
2018-02-19 03:00:00 5.4 5 Oeste 8 Noroeste 0 -- -- 88
2018-02-19 02:00:00 7.1 4 Noroeste 8 Noroeste 0 -- -- 87
2018-02-19 01:00:00 7.4 5 Noroeste 8 Noroeste 0 -- -- 90
2018-02-19 00:00:00 8.9 2 Noroeste 7 Norte 0 -- -- 87
2018-02-18 23:00:00 9.6 6 Noroeste 13 Norte 0 -- -- 89
2018-02-18 22:00:00 10.8 0 Calma 8 Noroeste 0 -- -- 81
2018-02-18 21:00:00 13.2 3 Sudoeste 8 Oeste 0 -- -- 78
2018-02-18 20:00:00 14.9 4 Oeste 13 Oeste 0 -- -- 72
2018-02-18 19:00:00 17.2 7 Sudoeste 14 Sudoeste 0 -- -- 67
2018-02-18 18:00:00 19.2 3 Sudoeste 18 Nordeste 0 -- -- 52
2018-02-18 17:00:00 19.6 7 Este 21 Este 0 -- -- 52
2018-02-18 16:00:00 19.3 7 Este 14 Este 0 -- -- 52
2018-02-18 15:00:00 18.5 6 Este 20 Nordeste 0 -- -- 58
2018-02-18 14:00:00 17.6 8 Este 22 Este 0 -- -- 63
2018-02-18 13:00:00 16 12 Nordeste 21 Este 0 -- -- 69
2018-02-18 12:00:00 14.2 11 Nordeste 19 Este 0 -- -- 75
2018-02-18 11:00:00 10.9 12 Nordeste 17 Este 0 -- -- 98
2018-02-18 10:00:00 7.3 3 Norte 10 Nordeste 0 -- -- 99
2018-02-18 09:00:00 6.1 3 Nordeste 10 Noroeste 0 -- -- 99
2018-02-18 08:00:00 5.2 0 Calma 6 Norte 0 -- -- 99
2018-02-18 07:00:00 4.9 2 Sur 6 Norte 0 -- -- 99
2018-02-18 06:00:00 5.5 3 Oeste 7 Norte 0 -- -- 98
2018-02-18 05:00:00 5.8 3 Noroeste 6 Norte 0 -- -- 98
2018-02-18 04:00:00 4.7 2 Noroeste 4 Noroeste 0 -- -- 96
2018-02-18 03:00:00 4.9 0 Calma 4 Noroeste 0 -- -- 95
2018-02-18 02:00:00 5.1 3 Oeste 6 Noroeste 0 -- -- 93
2018-02-18 01:00:00 6.3 0 Calma 2 Sudoeste 0 -- -- 91
2018-02-18 00:00:00 7.4 0 Calma 3 Oeste 0 -- -- 89
2018-02-17 23:00:00 9.4 0 Calma 4 Sudeste 0 -- -- 88
2018-02-17 22:00:00 10.8 4 Oeste 7 Oeste 0 -- -- 86
2018-02-17 21:00:00 12.1 6 Oeste 15 Oeste 0 -- -- 83
2018-02-17 20:00:00 13.2 2 Norte 15 Sudoeste 0 -- -- 77
2018-02-17 19:00:00 15.1 7 Sudoeste 15 Sudoeste 0 -- -- 69
2018-02-17 18:00:00 17.9 7 Sudoeste 14 Sur 0 -- -- 63
2018-02-17 17:00:00 18.3 7 Sur 14 Sur 0 -- -- 59
2018-02-17 16:00:00 17.5 6 Sur 13 Sudeste 0 -- -- 64
2018-02-17 15:00:00 15.4 2 Sudoeste 9 Sur 0 -- -- 71
2018-02-17 14:00:00 12.8 4 Sur 9 Sudeste 0 -- -- 82
2018-02-17 13:00:00 10 2 Este 8 Sudeste 0 -- -- 97
2018-02-17 12:00:00 8.7 3 Este 6 Este 0 -- -- 99
2018-02-17 11:00:00 7.6 0 Calma 6 Este 0 -- -- 99
2018-02-17 10:00:00 5.6 2 Noroeste 4 Oeste 0 -- -- 99
2018-02-17 09:00:00 3.2 2 Noroeste 3 Oeste 0 -- -- 99
2018-02-17 08:00:00 3.2 0 Calma 4 Oeste 0 -- -- 99
2018-02-17 07:00:00 2.3 2 Noroeste 4 Noroeste 0 -- -- 98
2018-02-17 06:00:00 2 3 Noroeste 5 Noroeste 0 -- -- 97
2018-02-17 05:00:00 3 0 Calma 3 Sudeste 0 -- -- 96
2018-02-17 04:00:00 3.9 0 Calma 2 Sudeste 0 -- -- 94
2018-02-17 03:00:00 5.3 3 Sudeste 4 Noroeste 0 -- -- 94
2018-02-17 02:00:00 6.1 3 Noroeste 6 Noroeste 0 -- -- 93
2018-02-17 01:00:00 7.7 3 Noroeste 6 Noroeste 0 -- -- 92
2018-02-17 00:00:00 9.4 3 Noroeste 9 Noroeste 0 -- -- 88
2018-02-16 23:00:00 11.2 2 Noroeste 10 Oeste 0 -- -- 88
2018-02-16 22:00:00 12.1 6 Noroeste 17 Oeste 0 -- -- 81
2018-02-16 21:00:00 13.2 8 Oeste 14 Noroeste 0 -- -- 74
2018-02-16 20:00:00 14.7 9 Noroeste 21 Oeste 0 -- -- 70
2018-02-16 19:00:00 18.5 12 Sudoeste 24 Oeste 0 -- -- 58
2018-02-16 18:00:00 22.1 11 Sudoeste 22 Sur 0 -- -- 45
2018-02-16 17:00:00 22.8 5 Sudoeste 18 Sudoeste 0 -- -- 42
2018-02-16 16:00:00 22.5 7 Sudoeste 30 Sudeste 0 -- -- 42
2018-02-16 15:00:00 21.1 4 Nordeste 12 Noroeste 0 -- -- 47
2018-02-16 14:00:00 20.8 6 Este 11 Este 0 -- -- 50
2018-02-16 13:00:00 18.8 6 Nordeste 19 Este 0 -- -- 57
2018-02-16 12:00:00 17.4 10 Este 16 Nordeste 0 -- -- 61
2018-02-16 11:00:00 14 5 Nordeste 9 Nordeste 0 -- -- 72
2018-02-16 10:00:00 9.3 3 Noroeste 6 Noroeste 0 -- -- 93
2018-02-16 09:00:00 6.7 3 Oeste 8 Noroeste 0 -- -- 96
2018-02-16 08:00:00 5.3 6 Noroeste 7 Noroeste 0 -- -- 95
2018-02-16 07:00:00 5.6 2 Norte 6 Nordeste 0 -- -- 94
2018-02-16 06:00:00 5.1 3 Oeste 5 Oeste 0 -- -- 91
2018-02-16 05:00:00 5.8 2 Noroeste 8 Noroeste 0 -- -- 92
2018-02-16 04:00:00 5.8 3 Noroeste 8 Noroeste 0 -- -- 91
2018-02-16 03:00:00 6.2 5 Noroeste 9 Noroeste 0 -- -- 91
2018-02-16 02:00:00 5.7 5 Oeste 6 Oeste 0 -- -- 88
2018-02-16 01:00:00 7.2 3 Norte 5 Noroeste 0 -- -- 88
2018-02-16 00:00:00 7.7 4 Noroeste 7 Noroeste 0 -- -- 87
2018-02-15 23:00:00 8.2 2 Noroeste 4 Norte 0 -- -- 82
2018-02-15 22:00:00 10.1 2 Noroeste 10 Noroeste 0 -- -- 78
2018-02-15 21:00:00 10.9 5 Norte 6 Norte 0 -- -- 71
2018-02-15 20:00:00 14.6 0 Calma 3 Oeste 0 -- -- 64
2018-02-15 19:00:00 18.9 2 Sudoeste 5 Este 0 -- -- 54
2018-02-15 18:00:00 20.2 0 Calma 11 Nordeste 0 -- -- 49
2018-02-15 17:00:00 20.2 4 Este 15 Este 0 -- -- 48
2018-02-15 16:00:00 19.7 7 Este 16 Este 0 -- -- 48
2018-02-15 15:00:00 19.6 10 Este 21 Este 0 -- -- 48
2018-02-15 14:00:00 18.6 12 Nordeste 24 Este 0 -- -- 52
2018-02-15 13:00:00 17.2 13 Este 23 Este 0 -- -- 57
2018-02-15 12:00:00 14.9 11 Nordeste 20 Nordeste 0 -- -- 62
2018-02-15 11:00:00 12.3 12 Nordeste 21 Nordeste 0 -- -- 72
2018-02-15 10:00:00 8.9 6 Nordeste 17 Nordeste 0 -- -- 83
2018-02-15 09:00:00 5.7 3 Norte 9 Nordeste 0 -- -- 97
2018-02-15 08:00:00 4.3 4 Noroeste 10 Nordeste 0 -- -- 96
2018-02-15 07:00:00 2.8 3 Noroeste 5 Noroeste 0 -- -- 96
2018-02-15 06:00:00 3.2 0 Calma 4 Oeste 0 -- -- 96
2018-02-15 05:00:00 3.5 3 Noroeste 4 Oeste 0 -- -- 95
2018-02-15 04:00:00 3.7 3 Noroeste 4 Oeste 0 -- -- 94
2018-02-15 03:00:00 4.5 0 Calma 4 Noroeste 0 -- -- 94
2018-02-15 02:00:00 5 3 Noroeste 7 Noroeste 0 -- -- 93
2018-02-15 01:00:00 6.1 4 Noroeste 8 Norte 0 -- -- 92
2018-02-15 00:00:00 7.2 5 Noroeste 8 Norte 0 -- -- 91
2018-02-14 23:00:00 7.4 3 Noroeste 8 Norte 0 -- -- 88
2018-02-14 22:00:00 8.5 2 Noroeste 9 Norte 0 -- -- 84
2018-02-14 21:00:00 10.5 7 Noroeste 14 Oeste 0 -- -- 79
2018-02-14 20:00:00 11.1 3 Noroeste 12 Sudoeste 0 -- -- 73
2018-02-14 19:00:00 13.7 7 Oeste 15 Oeste 0 -- -- 63
2018-02-14 18:00:00 15.9 10 Oeste 21 Oeste 0 -- -- 56
2018-02-14 17:00:00 15.4 12 Oeste 24 Oeste 0 -- -- 57
2018-02-14 16:00:00 15.8 14 Oeste 27 Noroeste 0 -- -- 53
2018-02-14 15:00:00 15.5 13 Oeste 24 Oeste 0 -- -- 56
2018-02-14 14:00:00 15.7 3 Norte 9 Oeste 0 -- -- 53
2018-02-14 13:00:00 13.8 3 Noroeste 9 Sudeste 0 -- -- 60
2018-02-14 12:00:00 12.4 4 Este 10 Nordeste 0 -- -- 63
2018-02-14 11:00:00 9 5 Norte 8 Norte 0 -- -- 73
2018-02-14 10:00:00 5.6 2 Norte 5 Noroeste 0 -- -- 89
2018-02-14 09:00:00 1.4 4 Noroeste 5 Noroeste 0 -- -- 94
2018-02-14 08:00:00 1.5 2 Noroeste 2 Noroeste 0 -- -- 93
2018-02-14 07:00:00 2.4 0 Calma 5 Oeste 0 -- -- 93
2018-02-14 06:00:00 3.1 0 Calma 4 Norte 0 -- -- 95
2018-02-14 05:00:00 1.8 2 Noroeste 5 Noroeste 0 -- -- 94
2018-02-14 04:00:00 2.3 2 Noroeste 4 Noroeste 0 -- -- 94
2018-02-14 03:00:00 3 0 Calma 6 Noroeste 0 -- -- 92
2018-02-14 02:00:00 5 4 Norte 8 Norte 0 -- -- 95
2018-02-14 01:00:00 4.2 4 Norte 6 Norte 0 -- -- 91
2018-02-14 00:00:00 5 2 Noroeste 6 Norte 0 -- -- 90
2018-02-13 23:00:00 6.2 5 Norte 13 Noroeste 0 -- -- 89
2018-02-13 22:00:00 8.5 10 Noroeste 17 Noroeste 0 -- -- 84
2018-02-13 21:00:00 8.8 6 Noroeste 12 Norte 0 -- -- 79
2018-02-13 20:00:00 9.6 4 Noroeste 14 Oeste 0 -- -- 66
2018-02-13 19:00:00 12.8 9 Noroeste 20 Oeste 0 -- -- 49
2018-02-13 18:00:00 15.3 15 Oeste 29 Oeste 0 -- -- 42
2018-02-13 17:00:00 16 16 Oeste 30 Oeste 0 -- -- 39
2018-02-13 16:00:00 15.9 14 Oeste 26 Oeste 0 -- -- 41
2018-02-13 15:00:00 15.4 14 Oeste 35 Oeste 0 -- -- 37
2018-02-13 14:00:00 14.6 9 Oeste 20 Oeste 0 -- -- 39
2018-02-13 13:00:00 13.9 8 Oeste 13 Noroeste 0 -- -- 44
2018-02-13 12:00:00 11.8 5 Oeste 11 Oeste 0 -- -- 58
2018-02-13 11:00:00 9 5 Noroeste 10 Noroeste 0 -- -- 69
2018-02-13 10:00:00 5.6 0 Calma 4 Oeste 0 -- -- 75
2018-02-13 09:00:00 0.5 3 Nordeste 5 Nordeste 0 -- -- 93
2018-02-13 08:00:00 -0.7 2 Noroeste 8 Noroeste 0 -- -- 91
2018-02-13 07:00:00 -0.5 0 Calma 4 Noroeste 0 -- -- 89
2018-02-13 06:00:00 0 0 Calma 4 Sudeste 0 -- -- 89
2018-02-13 05:00:00 0.9 3 Norte 6 Oeste 0 -- -- 86
2018-02-13 04:00:00 0.4 3 Noroeste 5 Norte 0 -- -- 85
2018-02-13 03:00:00 1.7 0 Calma 5 Norte 0 -- -- 81
2018-02-13 02:00:00 2.5 0 Calma 3 Noroeste 0 -- -- 78
2018-02-13 01:00:00 3.8 3 Noroeste 8 Noroeste 0 -- -- 73
2018-02-13 00:00:00 5.5 3 Noroeste 9 Oeste 0 -- -- 66
2018-02-12 23:00:00 5.3 4 Noroeste 13 Noroeste 0 -- -- 67
2018-02-12 22:00:00 6.3 4 Noroeste 11 Noroeste 0 -- -- 65
2018-02-12 21:00:00 7.3 3 Noroeste 13 Noroeste 0 -- -- 63
2018-02-12 20:00:00 9.8 9 Noroeste 13 Noroeste 0 -- -- 58
2018-02-12 19:00:00 13.6 9 Noroeste 23 Noroeste 0 -- -- 49
2018-02-12 18:00:00 16.4 12 Noroeste 27 Noroeste 0 -- -- 41
2018-02-12 17:00:00 17.5 19 Noroeste 37 Noroeste 0 -- -- 41
2018-02-12 16:00:00 17.5 18 Noroeste 36 Oeste 0 -- -- 39
2018-02-12 15:00:00 16.8 20 Noroeste 35 Oeste 0 -- -- 40
2018-02-12 14:00:00 16.8 23 Noroeste 43 Oeste 0 -- -- 45
2018-02-12 13:00:00 14.9 15 Oeste 31 Oeste 0 -- -- 74
2018-02-12 12:00:00 13 18 Oeste 29 Oeste 0 -- -- 90
2018-02-12 11:00:00 13.1 13 Oeste 25 Oeste 0 -- -- 85
2018-02-12 10:00:00 12.2 11 Oeste 20 Oeste 0 -- -- 88
2018-02-12 09:00:00 11.5 10 Oeste 17 Oeste 0 -- -- 90
2018-02-12 08:00:00 11.6 9 Oeste 24 Oeste 0 -- -- 88
2018-02-12 07:00:00 11.7 13 Oeste 22 Oeste 0 -- -- 88
2018-02-12 06:00:00 11.6 8 Oeste 13 Oeste 0 -- -- 92
2018-02-12 05:00:00 11.4 8 Noroeste 14 Noroeste 0 -- -- 96
2018-02-12 04:00:00 10.8 10 Oeste 17 Noroeste 0 -- -- 96
2018-02-12 03:00:00 9.5 5 Noroeste 11 Noroeste 0 -- -- 94
2018-02-12 02:00:00 11.6 8 Oeste 17 Oeste 0 -- -- 93
2018-02-12 01:00:00 11.3 2 Norte 11 Oeste 0 -- -- 90
2018-02-12 00:00:00 11.5 3 Sudoeste 10 Oeste 0 -- -- 91
2018-02-11 23:00:00 11.7 2 Noroeste 8 Oeste 0 -- -- 85
2018-02-11 22:00:00 12.7 7 Oeste 10 Oeste 0 -- -- 84
2018-02-11 21:00:00 11.4 4 Norte 9 Oeste 0 -- -- 83
2018-02-11 20:00:00 13.4 8 Noroeste 23 Noroeste 0 -- -- 77
2018-02-11 19:00:00 14.9 19 Noroeste 32 Noroeste 0 -- -- 72
2018-02-11 18:00:00 18 21 Oeste 33 Oeste 0 -- -- 60
2018-02-11 17:00:00 18.3 12 Sudoeste 26 Sudoeste 0 -- -- 53
2018-02-11 16:00:00 19 11 Oeste 23 Oeste 0 -- -- 47
2018-02-11 15:00:00 18.3 10 Oeste 21 Oeste 0 -- -- 46
2018-02-11 14:00:00 17.7 10 Sudoeste 20 Oeste 0 -- -- 44
2018-02-11 13:00:00 16 7 Sur 15 Sudoeste 0 -- -- 45
2018-02-11 12:00:00 14.6 3 Sudeste 11 Este 0 -- -- 47
2018-02-11 11:00:00 11.9 6 Sudeste 9 Sudeste 0 -- -- 53
2018-02-11 10:00:00 6.3 0 Calma 4 Norte 0 -- -- 72
2018-02-11 09:00:00 0.6 2 Noroeste 4 Noroeste 0 -- -- 89
2018-02-11 08:00:00 0.4 0 Calma 4 Noroeste 0 -- -- 87
2018-02-11 07:00:00 0.7 3 Noroeste 7 Noroeste 0 -- -- 85
2018-02-11 06:00:00 1 0 Calma 6 Noroeste 0 -- -- 86
2018-02-11 05:00:00 1.2 4 Noroeste 7 Noroeste 0 -- -- 85
2018-02-11 04:00:00 2.1 0 Calma 5 Noroeste 0 -- -- 83
2018-02-11 03:00:00 3.6 5 Noroeste 9 Norte 0 -- -- 78
2018-02-11 02:00:00 2.7 2 Noroeste 5 Norte 0 -- -- 80
2018-02-11 01:00:00 3.4 5 Noroeste 6 Noroeste 0 -- -- 77
2018-02-11 00:00:00 4.1 5 Noroeste 8 Noroeste 0 -- -- 75
2018-02-10 23:00:00 6.3 3 Norte 7 Noroeste 0 -- -- 68
2018-02-10 22:00:00 6.2 2 Oeste 6 Noroeste 0 -- -- 74
2018-02-10 21:00:00 8.4 6 Noroeste 9 Noroeste 0 -- -- 75
2018-02-10 20:00:00 11.3 5 Este 9 Nordeste 0 -- -- 71
2018-02-10 19:00:00 13.9 5 Sur 14 Sur 0 -- -- 64
2018-02-10 18:00:00 16.9 3 Sur 8 Oeste 0 -- -- 47
2018-02-10 17:00:00 16.8 5 Este 11 Este 0 -- -- 46
2018-02-10 16:00:00 16.6 5 Sur 14 Este 0 -- -- 49
2018-02-10 15:00:00 15.8 6 Sur 16 Sudeste 0 -- -- 51
2018-02-10 14:00:00 14.8 6 Sudeste 13 Este 0 -- -- 54
2018-02-10 13:00:00 13.5 4 Norte 11 Nordeste 0 -- -- 60
2018-02-10 12:00:00 11.6 2 Norte 9 Nordeste 0 -- -- 68
2018-02-10 11:00:00 10.2 4 Sudeste 10 Sudeste 0 -- -- 74
2018-02-10 10:00:00 5.3 4 Oeste 9 Noroeste 0 -- -- 96
2018-02-10 09:00:00 1 3 Noroeste 7 Noroeste 0 -- -- 96
2018-02-10 08:00:00 0.6 4 Noroeste 6 Noroeste 0 -- -- 95
2018-02-10 07:00:00 1.5 2 Noroeste 6 Norte 0 -- -- 95
2018-02-10 06:00:00 2.1 3 Noroeste 6 Oeste 0 -- -- 94
2018-02-10 05:00:00 2.3 4 Noroeste 8 Noroeste 0 -- -- 92
2018-02-10 04:00:00 4.3 3 Noroeste 9 Noroeste 0 -- -- 90
2018-02-10 03:00:00 5 4 Noroeste 8 Noroeste 0 -- -- 90
2018-02-10 02:00:00 5.3 4 Noroeste 10 Norte 0 -- -- 91
2018-02-10 01:00:00 5.4 3 Noroeste 8 Noroeste 0 -- -- 90
2018-02-10 00:00:00 7.3 2 Noroeste 6 Noroeste 0 -- -- 87
2018-02-09 23:00:00 7.5 0 Calma 7 Noroeste 0 -- -- 88
2018-02-09 22:00:00 7.3 3 Noroeste 7 Oeste 0 -- -- 89
2018-02-09 21:00:00 7.4 0 Calma 4 Oeste 0 -- -- 86
2018-02-09 20:00:00 9.4 2 Sur 13 Oeste 0 -- -- 81
2018-02-09 19:00:00 10.5 8 Oeste 18 Oeste 0 -- -- 78
2018-02-09 18:00:00 11.7 12 Oeste 18 Oeste 0 -- -- 62
2018-02-09 17:00:00 12.2 9 Oeste 17 Sudoeste 0 -- -- 55
2018-02-09 16:00:00 12.6 6 Oeste 19 Sur 0 -- -- 48
2018-02-09 15:00:00 12 8 Sur 15 Sudoeste 0 -- -- 45
2018-02-09 14:00:00 11.5 0 Calma 10 Sur 0 -- -- 45
2018-02-09 13:00:00 9.8 4 Sudeste 9 Este 0 -- -- 49
2018-02-09 12:00:00 8.8 4 Este 9 Sudeste 0 -- -- 48
2018-02-09 11:00:00 6.2 5 Sudeste 8 Sudeste 0 -- -- 55
2018-02-09 10:00:00 3.3 3 Sudeste 6 Sudeste 0 -- -- 64
2018-02-09 09:00:00 -1.3 2 Sudeste 7 Sudeste 0 -- -- 81
2018-02-09 08:00:00 -2.5 2 Noroeste 6 Norte 0 -- -- 81
2018-02-09 07:00:00 -2.5 3 Norte 6 Noroeste 0 -- -- 80
2018-02-09 06:00:00 -2.1 3 Noroeste 7 Norte 0 -- -- 78
2018-02-09 05:00:00 -0.9 4 Noroeste 10 Noroeste 0 -- -- 73
2018-02-09 04:00:00 -1.6 4 Noroeste 8 Noroeste 0 -- -- 74
2018-02-09 03:00:00 -0.4 3 Noroeste 6 Noroeste 0 -- -- 70
2018-02-09 02:00:00 0.8 4 Noroeste 7 Noroeste 0 -- -- 65
2018-02-09 01:00:00 1.3 5 Norte 8 Noroeste 0 -- -- 63
2018-02-09 00:00:00 1.7 8 Noroeste 9 Noroeste 0 -- -- 63
2018-02-08 23:00:00 5.3 4 Norte 13 Norte 0 -- -- 49
2018-02-08 22:00:00 6.1 7 Norte 15 Norte 0 -- -- 47
2018-02-08 21:00:00 6.9 8 Norte 12 Norte 0 -- -- 45
2018-02-08 20:00:00 8.4 8 Norte 15 Norte 0 -- -- 42
2018-02-08 19:00:00 11 8 Norte 18 Norte 0 -- -- 36
2018-02-08 18:00:00 13.2 12 Norte 25 Noroeste 0 -- -- 32
2018-02-08 17:00:00 14.3 7 Norte 23 Norte 0 -- -- 32
2018-02-08 16:00:00 14.1 10 Nordeste 22 Nordeste 0 -- -- 33
2018-02-08 15:00:00 13.5 11 Nordeste 26 Nordeste 0 -- -- 35
2018-02-08 14:00:00 12.8 15 Este 30 Nordeste 0 -- -- 38
2018-02-08 13:00:00 11.7 15 Nordeste 30 Nordeste 0 -- -- 39
2018-02-08 12:00:00 10.6 17 Nordeste 33 Nordeste 0 -- -- 40
2018-02-08 11:00:00 8.4 14 Nordeste 27 Nordeste 0 -- -- 46
2018-02-08 10:00:00 5.8 14 Norte 23 Norte 0 -- -- 53
2018-02-08 09:00:00 4 11 Norte 20 Norte 0 -- -- 56
2018-02-08 08:00:00 3.1 7 Norte 18 Nordeste 0 -- -- 59
2018-02-08 07:00:00 3.6 9 Norte 21 Norte 0 -- -- 57
2018-02-08 06:00:00 4 12 Norte 23 Norte 0 -- -- 57
2018-02-08 05:00:00 3.4 9 Norte 17 Norte 0 -- -- 60
2018-02-08 04:00:00 3.2 6 Norte 14 Nordeste 0 -- -- 61
2018-02-08 03:00:00 3.6 8 Norte 18 Nordeste 0 -- -- 59
2018-02-08 02:00:00 4.2 10 Nordeste 18 Norte 0 -- -- 57
2018-02-08 01:00:00 4.4 8 Norte 18 Norte 0 -- -- 55
2018-02-08 00:00:00 3.6 5 Norte 13 Nordeste 0 -- -- 58
2018-02-07 23:00:00 4.8 5 Norte 12 Norte 0 -- -- 54
2018-02-07 22:00:00 6 6 Nordeste 15 Norte 0 -- -- 53
2018-02-07 21:00:00 7 7 Nordeste 11 Nordeste 0 -- -- 57
2018-02-07 20:00:00 8.3 6 Nordeste 12 Nordeste 0 -- -- 50
2018-02-07 19:00:00 10.3 7 Nordeste 24 Este 0 -- -- 44
2018-02-07 18:00:00 12.3 20 Este 31 Nordeste 0 -- -- 39
2018-02-07 17:00:00 12.9 17 Este 33 Este 0 -- -- 34
2018-02-07 16:00:00 12.6 20 Este 38 Este 0 -- -- 35
2018-02-07 15:00:00 11.2 23 Este 41 Este 0 -- -- 39
2018-02-07 14:00:00 11.6 26 Este 42 Este 0 -- -- 40
2018-02-07 13:00:00 11.6 28 Este 43 Este 0 -- -- 45
2018-02-07 12:00:00 10.4 23 Este 42 Este 0 -- -- 54
2018-02-07 11:00:00 8.1 18 Nordeste 28 Este 0 -- -- 62
2018-02-07 10:00:00 4.8 7 Nordeste 14 Nordeste 0 -- -- 69
2018-02-07 09:00:00 -0.2 3 Norte 11 Norte 0 -- -- 79
2018-02-07 08:00:00 0 5 Norte 11 Norte 0 -- -- 77
2018-02-07 07:00:00 -1.2 3 Noroeste 6 Noroeste 0 -- -- 81
2018-02-07 06:00:00 -2.7 2 Noroeste 5 Noroeste 0 -- -- 87
2018-02-07 05:00:00 -2.2 2 Noroeste 5 Norte 0 -- -- 85
2018-02-07 04:00:00 -1.7 2 Noroeste 7 Noroeste 0 -- -- 82
2018-02-07 03:00:00 -0.8 4 Noroeste 6 Noroeste 0 -- -- 79
2018-02-07 02:00:00 0.2 3 Noroeste 5 Noroeste 0 -- -- 77
2018-02-07 01:00:00 2.1 0 Calma 8 Noroeste 0 -- -- 70
2018-02-07 00:00:00 4 4 Noroeste 13 Norte 0 -- -- 62
2018-02-06 23:00:00 6.2 4 Norte 10 Noroeste 0 -- -- 52
2018-02-06 22:00:00 7.6 5 Noroeste 9 Noroeste 0 -- -- 55
2018-02-06 21:00:00 9.3 5 Noroeste 18 Noroeste 0 -- -- 50
2018-02-06 20:00:00 9 8 Noroeste 16 Oeste 0 -- -- 55
2018-02-06 19:00:00 11.1 5 Noroeste 12 Noroeste 0 -- -- 48
2018-02-06 18:00:00 13.1 6 Noroeste 21 Norte 0 -- -- 41
2018-02-06 17:00:00 14.3 8 Norte 24 Norte 0 -- -- 35
2018-02-06 16:00:00 13.5 11 Norte 25 Norte 0 -- -- 38
2018-02-06 15:00:00 13 9 Norte 26 Nordeste 0 -- -- 42
2018-02-06 14:00:00 13.2 17 Norte 30 Nordeste 0 -- -- 45
2018-02-06 13:00:00 12 15 Nordeste 25 Norte 0 -- -- 48
2018-02-06 12:00:00 10.6 11 Norte 24 Norte 0 -- -- 58
2018-02-06 11:00:00 8.3 5 Oeste 11 Oeste 0 -- -- 70
2018-02-06 10:00:00 5.6 5 Noroeste 11 Noroeste 0 -- -- 80
2018-02-06 09:00:00 2.1 0 Calma 11 Noroeste 0 -- -- 89
2018-02-06 08:00:00 1.7 4 Noroeste 9 Noroeste 0 -- -- 89
2018-02-06 07:00:00 2.1 2 Noroeste 5 Norte 0 -- -- 90
2018-02-06 06:00:00 2 0 Calma 9 Noroeste 0 -- -- 89
2018-02-06 05:00:00 1.6 5 Noroeste 10 Norte 0 -- -- 92
2018-02-06 04:00:00 2.1 5 Noroeste 9 Norte 0 -- -- 90
2018-02-06 03:00:00 0.7 3 Noroeste 10 Noroeste 0 -- -- 92
2018-02-06 02:00:00 1.4 4 Noroeste 9 Noroeste 0 -- -- 92
2018-02-06 01:00:00 1.7 3 Noroeste 6 Norte 0 -- -- 92
2018-02-06 00:00:00 2 2 Noroeste 9 Noroeste 0 -- -- 93
2018-02-05 23:00:00 2.4 4 Noroeste 8 Noroeste 0 -- -- 93
2018-02-05 22:00:00 3.8 2 Norte 4 Oeste 0 -- -- 90
2018-02-05 21:00:00 5.7 2 Noroeste 8 Nordeste 0 -- -- 88
2018-02-05 20:00:00 6.8 4 Oeste 6 Noroeste 0 -- -- 89
2018-02-05 19:00:00 7.8 3 Sudoeste 17 Sudoeste 0 -- -- 81
2018-02-05 18:00:00 9 10 Sudoeste 24 Este 0.4 -- -- 74
2018-02-05 17:00:00 11.2 5 Sudoeste 32 Noroeste 0 -- -- 53
2018-02-05 16:00:00 12.8 5 Oeste 12 Oeste 0 -- -- 48
2018-02-05 15:00:00 12.3 4 Sur 12 Este 0 -- -- 48
2018-02-05 14:00:00 11.4 4 Este 13 Este 0 -- -- 55
2018-02-05 13:00:00 10.7 4 Norte 15 Sur 0 -- -- 56
2018-02-05 12:00:00 9.6 4 Sur 9 Sur 0 -- -- 61
2018-02-05 11:00:00 6.4 4 Norte 7 Nordeste 0 -- -- 73
2018-02-05 10:00:00 2.6 0 Calma 5 Oeste 0 -- -- 89
2018-02-05 09:00:00 -0.2 2 Noroeste 7 Noroeste 0 -- -- 92
2018-02-05 08:00:00 -0.8 3 Noroeste 6 Noroeste 0 -- -- 94
2018-02-05 07:00:00 -0.8 3 Noroeste 5 Norte 0 -- -- 92
2018-02-05 06:00:00 0.4 0 Calma 7 Norte 0 -- -- 91
2018-02-05 05:00:00 0.7 5 Norte 9 Noroeste 0 -- -- 89
2018-02-05 04:00:00 0.7 4 Noroeste 10 Norte 0 -- -- 89
2018-02-05 03:00:00 0.9 3 Noroeste 6 Noroeste 0 -- -- 89
2018-02-05 02:00:00 1.6 5 Norte 8 Norte 0 -- -- 86
2018-02-05 01:00:00 2.2 0 Calma 9 Noroeste 0 -- -- 87
2018-02-05 00:00:00 3.2 6 Noroeste 13 Noroeste 0 -- -- 82
2018-02-04 23:00:00 5.4 7 Norte 14 Norte 0 -- -- 73
2018-02-04 22:00:00 5 5 Noroeste 11 Noroeste 0 -- -- 80
2018-02-04 21:00:00 5.2 5 Noroeste 10 Noroeste 0 -- -- 83
2018-02-04 20:00:00 6.4 2 Noroeste 6 Noroeste 0 -- -- 88
2018-02-04 19:00:00 8.4 0 Calma 14 Sudoeste 0 -- -- 80
2018-02-04 18:00:00 9.9 5 Sudoeste 12 Sudoeste 0 -- -- 80
2018-02-04 17:00:00 10.5 8 Sur 17 Sur 0 -- -- 76
2018-02-04 16:00:00 11 5 Sudoeste 10 Sudoeste 0 -- -- 71
2018-02-04 15:00:00 10.5 4 Sudeste 8 Sudeste 0 -- -- 72
2018-02-04 14:00:00 9.8 3 Sudeste 10 Este 0 -- -- 77
2018-02-04 13:00:00 9.1 7 Este 22 Norte 1.2 -- -- 86
2018-02-04 12:00:00 10.3 10 Oeste 17 Sudoeste 0 -- -- 75
2018-02-04 11:00:00 8.6 8 Oeste 14 Oeste 0 -- -- 84
2018-02-04 10:00:00 7.5 0 Calma 9 Oeste 0 -- -- 89
2018-02-04 09:00:00 7.3 6 Oeste 18 Oeste 0 -- -- 88
2018-02-04 08:00:00 7.3 8 Oeste 14 Oeste 0 -- -- 89
2018-02-04 07:00:00 7.6 6 Oeste 22 Oeste 0 -- -- 90
2018-02-04 06:00:00 8.3 15 Oeste 30 Oeste 0 -- -- 90
2018-02-04 05:00:00 8.5 18 Oeste 30 Oeste 0 -- -- 91
2018-02-04 04:00:00 8.4 15 Oeste 26 Oeste 0 -- -- 90
2018-02-04 03:00:00 8.3 0 Calma 9 Sudoeste 0 -- -- 82
2018-02-04 02:00:00 7.6 3 Sur 7 Sudoeste 0 -- -- 75
2018-02-04 01:00:00 7.4 2 Sur 8 Oeste 0 -- -- 70
2018-02-04 00:00:00 6.4 3 Noroeste 7 Noroeste 0 -- -- 68
2018-02-03 23:00:00 5.9 0 Calma 8 Norte 0 -- -- 67
2018-02-03 22:00:00 6.8 4 Noroeste 8 Norte 0 -- -- 61
2018-02-03 21:00:00 8.4 4 Noroeste 17 Noroeste 0 -- -- 57
2018-02-03 20:00:00 10.2 13 Noroeste 24 Oeste 0 -- -- 47
2018-02-03 19:00:00 11.7 2 Nordeste 12 Sudeste 0 -- -- 55
2018-02-03 18:00:00 14 9 Sudeste 26 Sudeste 0 -- -- 48
2018-02-03 17:00:00 15.4 10 Sudeste 23 Sudeste 0 -- -- 36
2018-02-03 16:00:00 16.1 5 Sur 17 Sudoeste 0 -- -- 31
2018-02-03 15:00:00 15.2 9 Oeste 22 Sudoeste 0 -- -- 36
2018-02-03 14:00:00 13.9 7 Sudeste 14 Sudeste 0 -- -- 42
2018-02-03 13:00:00 12.9 6 Sudeste 12 Sudeste 0 -- -- 43
2018-02-03 12:00:00 10.9 3 Sur 9 Sur 0 -- -- 50
2018-02-03 11:00:00 7.3 0 Calma 4 Noroeste 0 -- -- 59
2018-02-03 10:00:00 2.9 0 Calma 4 Noroeste 0 -- -- 75
2018-02-03 09:00:00 -1.1 0 Calma 6 Sur 0 -- -- 89
2018-02-03 08:00:00 -1.7 3 Noroeste 5 Noroeste 0 -- -- 86
2018-02-03 07:00:00 -1.3 2 Noroeste 4 Noroeste 0 -- -- 85
2018-02-03 06:00:00 0.1 0 Calma 6 Oeste 0 -- -- 80
2018-02-03 05:00:00 1 3 Noroeste 7 Noroeste 0 -- -- 76
2018-02-03 04:00:00 2.9 5 Norte 12 Nordeste 0 -- -- 69
2018-02-03 03:00:00 0.5 2 Sur 7 Noroeste 0 -- -- 80
2018-02-03 02:00:00 1.4 3 Sudoeste 6 Noroeste 0 -- -- 78
2018-02-03 01:00:00 2.3 0 Calma 7 Norte 0 -- -- 71
2018-02-03 00:00:00 4 5 Norte 10 Norte 0 -- -- 64
2018-02-02 23:00:00 5.1 6 Norte 13 Norte 0 -- -- 60
2018-02-02 22:00:00 5.2 6 Noroeste 15 Norte 0 -- -- 62
2018-02-02 21:00:00 5.6 2 Noroeste 9 Noroeste 0 -- -- 61
2018-02-02 20:00:00 8.8 5 Noroeste 12 Norte 0 -- -- 52
2018-02-02 19:00:00 11 7 Norte 18 Nordeste 0 -- -- 43
2018-02-02 18:00:00 12.7 6 Norte 17 Norte 0 -- -- 37
2018-02-02 17:00:00 14 7 Nordeste 20 Nordeste 0 -- -- 37
2018-02-02 16:00:00 14.4 13 Norte 24 Norte 0 -- -- 36
2018-02-02 15:00:00 13.8 5 Noroeste 18 Noroeste 0 -- -- 38
2018-02-02 14:00:00 13.2 9 Norte 21 Norte 0 -- -- 43
2018-02-02 13:00:00 11.9 8 Nordeste 18 Noroeste 0 -- -- 44
2018-02-02 12:00:00 10.7 9 Norte 22 Nordeste 0 -- -- 49
2018-02-02 11:00:00 9.2 4 Oeste 13 Norte 0 -- -- 56
2018-02-02 10:00:00 6.5 0 Calma 8 Sudoeste 0 -- -- 67
2018-02-02 09:00:00 2.4 0 Calma 13 Norte 0 -- -- 83
2018-02-02 08:00:00 3.3 0 Calma 9 Oeste 0 -- -- 75
2018-02-02 07:00:00 5.2 4 Oeste 23 Noroeste 0 -- -- 67
2018-02-02 06:00:00 4.8 9 Noroeste 18 Noroeste 0 -- -- 72
2018-02-02 05:00:00 5.5 12 Noroeste 21 Noroeste 0 -- -- 75
2018-02-02 04:00:00 6 11 Noroeste 22 Noroeste 0 -- -- 73
2018-02-02 03:00:00 7.7 11 Noroeste 27 Norte 0 -- -- 62
2018-02-02 02:00:00 8.3 14 Noroeste 38 Norte 0 -- -- 63
2018-02-02 01:00:00 8 14 Noroeste 26 Noroeste 0 -- -- 67
2018-02-02 00:00:00 9 17 Noroeste 27 Noroeste 0 -- -- 65
2018-02-01 23:00:00 9 14 Noroeste 24 Oeste 0 -- -- 67
2018-02-01 22:00:00 10.4 17 Oeste 26 Oeste 0 -- -- 62
2018-02-01 21:00:00 11.3 20 Noroeste 31 Oeste 0 -- -- 61
2018-02-01 20:00:00 12.3 12 Noroeste 20 Oeste 0 -- -- 67
2018-02-01 19:00:00 13 14 Noroeste 25 Noroeste 0 -- -- 66
2018-02-01 18:00:00 14.9 12 Noroeste 40 Noroeste 0 -- -- 58
2018-02-01 17:00:00 15.4 24 Noroeste 37 Noroeste 0 -- -- 56
2018-02-01 16:00:00 15.1 22 Oeste 41 Noroeste 0 -- -- 59
2018-02-01 15:00:00 14.9 26 Oeste 43 Noroeste 0 -- -- 63
2018-02-01 14:00:00 14.1 18 Oeste 27 Oeste 0 -- -- 64
2018-02-01 13:00:00 14 15 Oeste 25 Oeste 0 -- -- 65
2018-02-01 12:00:00 12.7 17 Oeste 25 Oeste 0 -- -- 68
2018-02-01 11:00:00 11.1 16 Oeste 25 Oeste 0 -- -- 71
2018-02-01 10:00:00 9.3 5 Norte 14 Oeste 0 -- -- 85
2018-02-01 09:00:00 6.1 4 Noroeste 10 Oeste 0 -- -- 94
2018-02-01 08:00:00 6.8 5 Noroeste 12 Noroeste 0 -- -- 97
2018-02-01 07:00:00 4.7 0 Calma 3 Sudeste 0 -- -- 95
2018-02-01 06:00:00 5.2 0 Calma 4 Norte 0 -- -- 94
2018-02-01 05:00:00 6.8 4 Norte 8 Noroeste 0 -- -- 95
2018-02-01 04:00:00 7.1 5 Noroeste 9 Noroeste 0 -- -- 92
2018-02-01 03:00:00 7.9 5 Noroeste 9 Noroeste 0 -- -- 92
2018-02-01 02:00:00 8.2 3 Noroeste 6 Norte 0 -- -- 91
2018-02-01 01:00:00 9.3 3 Noroeste 9 Noroeste 0 -- -- 82
2018-02-01 00:00:00 11.2 7 Noroeste 15 Noroeste 0 -- -- 84
2018-01-31 23:00:00 11.5 4 Noroeste 13 Noroeste 0 -- -- 76
2018-01-31 22:00:00 10.9 3 Sudoeste 11 Sudeste 0 -- -- 70
2018-01-31 21:00:00 12.5 5 Sudeste 12 Sudeste 0 -- -- 63
2018-01-31 20:00:00 13.6 2 Oeste 11 Norte 0 -- -- 60
2018-01-31 19:00:00 15.3 3 Noroeste 8 Nordeste 0 -- -- 48
2018-01-31 18:00:00 17.6 5 Nordeste 18 Este 0 -- -- 42
2018-01-31 17:00:00 18.6 14 Nordeste 24 Este 0 -- -- 38
2018-01-31 16:00:00 18.8 17 Este 31 Nordeste 0 -- -- 42
2018-01-31 15:00:00 18.4 19 Nordeste 37 Nordeste 0 -- -- 45
2018-01-31 14:00:00 17.6 21 Nordeste 34 Nordeste 0 -- -- 49
2018-01-31 13:00:00 15.9 21 Nordeste 36 Nordeste 0 -- -- 54
2018-01-31 12:00:00 13.5 24 Nordeste 34 Nordeste 0 -- -- 63
2018-01-31 11:00:00 11.8 17 Nordeste 28 Este 0 -- -- 70
2018-01-31 10:00:00 10.9 17 Este 24 Este 0 -- -- 72
2018-01-31 09:00:00 10.6 9 Nordeste 21 Nordeste 0 -- -- 72
2018-01-31 08:00:00 11.1 9 Este 14 Sudeste 0 -- -- 71
2018-01-31 07:00:00 11.8 6 Este 36 Nordeste 0 -- -- 68
2018-01-31 06:00:00 11.5 19 Nordeste 33 Nordeste 0 -- -- 72
2018-01-31 05:00:00 11.4 15 Nordeste 31 Nordeste 0 -- -- 73
2018-01-31 04:00:00 10.8 13 Nordeste 22 Nordeste 0 -- -- 75
2018-01-31 03:00:00 10.7 4 Este 19 Nordeste 0 -- -- 72
2018-01-31 02:00:00 11.6 8 Nordeste 21 Nordeste 0 -- -- 67
2018-01-31 01:00:00 11.8 11 Nordeste 21 Este 0 -- -- 67
2018-01-31 00:00:00 11.7 8 Este 24 Nordeste 0 -- -- 69
2018-01-30 23:00:00 12.1 10 Nordeste 21 Nordeste 0 -- -- 66
2018-01-30 22:00:00 12.4 8 Nordeste 23 Este 0 -- -- 63
2018-01-30 21:00:00 13 15 Nordeste 22 Este 0 -- -- 62
2018-01-30 20:00:00 13.5 15 Este 26 Nordeste 0 -- -- 61
2018-01-30 19:00:00 14.2 13 Nordeste 27 Nordeste 0 -- -- 59
2018-01-30 18:00:00 15.4 14 Nordeste 27 Este 0 -- -- 57
2018-01-30 17:00:00 16.7 19 Este 33 Este 0 -- -- 52
2018-01-30 16:00:00 17.7 21 Este 36 Este 0 -- -- 49
2018-01-30 15:00:00 17.3 17 Este 34 Nordeste 0 -- -- 52
2018-01-30 14:00:00 17.1 22 Este 36 Nordeste 0 -- -- 52
2018-01-30 13:00:00 15.4 22 Nordeste 40 Este 0 -- -- 54
2018-01-30 12:00:00 13.3 22 Nordeste 38 Nordeste 0 -- -- 60
2018-01-30 11:00:00 11.6 27 Nordeste 40 Nordeste 0 -- -- 65
2018-01-30 10:00:00 11.6 23 Nordeste 39 Nordeste 0 -- -- 63
2018-01-30 09:00:00 11.1 23 Nordeste 33 Nordeste 0 -- -- 64
2018-01-30 08:00:00 11.2 18 Nordeste 30 Nordeste 0 -- -- 64
2018-01-30 07:00:00 11.3 20 Nordeste 31 Nordeste 0 -- -- 65
2018-01-30 06:00:00 11.1 19 Nordeste 31 Nordeste 0 -- -- 67
2018-01-30 05:00:00 10.6 17 Nordeste 31 Nordeste 0 -- -- 70
2018-01-30 04:00:00 10.5 14 Nordeste 31 Nordeste 0 -- -- 70
2018-01-30 03:00:00 10.6 14 Nordeste 24 Nordeste 0 -- -- 69
2018-01-30 02:00:00 10.8 12 Nordeste 25 Nordeste 0 -- -- 69
2018-01-30 01:00:00 10.9 8 Nordeste 19 Nordeste 0 -- -- 69
2018-01-30 00:00:00 11.7 12 Nordeste 22 Nordeste 0 -- -- 71
2018-01-29 23:00:00 11.5 13 Nordeste 16 Nordeste 0 -- -- 68
2018-01-29 22:00:00 12.1 8 Nordeste 14 Este 0 -- -- 63
2018-01-29 21:00:00 13.7 8 Este 28 Este 0 -- -- 55
2018-01-29 20:00:00 15.5 22 Este 36 Este 0 -- -- 50
2018-01-29 19:00:00 16.4 24 Este 37 Este 0 -- -- 48
2018-01-29 18:00:00 17.5 18 Este 31 Este 0 -- -- 45
2018-01-29 17:00:00 18.3 20 Este 40 Este 0 -- -- 43
2018-01-29 16:00:00 19.1 20 Este 39 Este 0 -- -- 42
2018-01-29 15:00:00 18.3 22 Este 45 Este 0 -- -- 45
2018-01-29 14:00:00 17.6 29 Este 56 Este 0 -- -- 45
2018-01-29 13:00:00 16.8 35 Este 51 Este 0 -- -- 49
2018-01-29 12:00:00 14.6 24 Este 44 Este 0 -- -- 56
2018-01-29 11:00:00 13.1 22 Nordeste 38 Este 0 -- -- 62
2018-01-29 10:00:00 12.7 29 Nordeste 46 Nordeste 0 -- -- 62
2018-01-29 09:00:00 12.2 29 Este 47 Este 0 -- -- 63
2018-01-29 08:00:00 12.1 32 Este 49 Este 0 -- -- 63
2018-01-29 07:00:00 10.8 19 Nordeste 30 Nordeste 0 -- -- 66
2018-01-29 06:00:00 10.2 13 Nordeste 23 Nordeste 0 -- -- 65
2018-01-29 05:00:00 9.8 14 Nordeste 23 Nordeste 0 -- -- 63
2018-01-29 04:00:00 9.8 9 Nordeste 25 Nordeste 0 -- -- 60
2018-01-29 03:00:00 9 9 Nordeste 23 Nordeste 0 -- -- 62
2018-01-29 02:00:00 8.6 6 Nordeste 16 Este 0 -- -- 61
2018-01-29 01:00:00 8.2 7 Nordeste 20 Nordeste 0 -- -- 65
2018-01-29 00:00:00 8.8 15 Nordeste 26 Nordeste 0 -- -- 62
2018-01-28 23:00:00 9 11 Nordeste 22 Nordeste 0 -- -- 69
2018-01-28 22:00:00 10 12 Nordeste 25 Este 0 -- -- 63
2018-01-28 21:00:00 11.1 10 Este 41 Sudeste 0 -- -- 59
2018-01-28 20:00:00 12.3 25 Sudeste 39 Este 0 -- -- 57
2018-01-28 19:00:00 13 15 Sudeste 48 Este 0 -- -- 57
2018-01-28 18:00:00 14.8 24 Este 47 Este 0 -- -- 48
2018-01-28 17:00:00 15.2 27 Este 51 Este 0 -- -- 47
2018-01-28 16:00:00 15.9 30 Este 53 Este 0 -- -- 48
2018-01-28 15:00:00 15.6 30 Este 51 Este 0 -- -- 49
2018-01-28 14:00:00 14.8 27 Este 45 Este 0 -- -- 55
2018-01-28 13:00:00 13.9 28 Este 40 Este 0 -- -- 53
2018-01-28 12:00:00 12.7 25 Este 38 Nordeste 0 -- -- 54
2018-01-28 11:00:00 11.6 19 Nordeste 36 Este 0 -- -- 55
2018-01-28 10:00:00 9.3 10 Nordeste 19 Este 0 -- -- 60
2018-01-28 09:00:00 6.9 8 Norte 18 Norte 0 -- -- 64
2018-01-28 08:00:00 7 7 Norte 22 Nordeste 0 -- -- 61
2018-01-28 07:00:00 6.8 13 Norte 21 Norte 0 -- -- 63
2018-01-28 06:00:00 4.9 6 Norte 14 Norte 0 -- -- 71
2018-01-28 05:00:00 5.4 4 Norte 21 Nordeste 0 -- -- 68
2018-01-28 04:00:00 6.6 14 Nordeste 20 Norte 0 -- -- 64
2018-01-28 03:00:00 5.3 5 Norte 12 Nordeste 0 -- -- 70
2018-01-28 02:00:00 5.9 5 Norte 14 Nordeste 0 -- -- 68
2018-01-28 01:00:00 4.2 5 Nordeste 8 Nordeste 0 -- -- 79
2018-01-28 00:00:00 3.4 0 Calma 4 Norte 0 -- -- 82
2018-01-27 23:00:00 3.6 2 Noroeste 4 Norte 0 -- -- 80
2018-01-27 22:00:00 4.9 3 Noroeste 8 Norte 0 -- -- 74
2018-01-27 21:00:00 7.5 3 Nordeste 9 Nordeste 0 -- -- 60
2018-01-27 20:00:00 10.5 6 Norte 15 Norte 0 -- -- 48
2018-01-27 19:00:00 11.9 9 Nordeste 23 Nordeste 0 -- -- 44
2018-01-27 18:00:00 13.8 8 Nordeste 30 Este 0 -- -- 41
2018-01-27 17:00:00 15.3 19 Este 32 Este 0 -- -- 37
2018-01-27 16:00:00 15.5 13 Nordeste 39 Nordeste 0 -- -- 37
2018-01-27 15:00:00 15.5 21 Nordeste 41 Nordeste 0 -- -- 37
2018-01-27 14:00:00 15.3 14 Nordeste 31 Este 0 -- -- 38
2018-01-27 13:00:00 14.4 13 Nordeste 25 Nordeste 0 -- -- 42
2018-01-27 12:00:00 12.2 8 Nordeste 18 Nordeste 0 -- -- 53
2018-01-27 11:00:00 10.1 9 Nordeste 15 Nordeste 0 -- -- 60
2018-01-27 10:00:00 8.4 9 Nordeste 15 Nordeste 0 -- -- 66
2018-01-27 09:00:00 5.9 7 Nordeste 17 Nordeste 0 -- -- 75
2018-01-27 08:00:00 5.9 8 Nordeste 15 Nordeste 0 -- -- 74
2018-01-27 07:00:00 5.7 7 Nordeste 17 Norte 0 -- -- 75
2018-01-27 06:00:00 6.8 10 Norte 20 Norte 0 -- -- 72
2018-01-27 05:00:00 6.3 7 Norte 14 Norte 0 -- -- 74
2018-01-27 04:00:00 6.1 8 Norte 14 Norte 0 -- -- 76
2018-01-27 03:00:00 5.5 0 Calma 12 Norte 0 -- -- 78
2018-01-27 02:00:00 6.7 8 Norte 14 Nordeste 0 -- -- 72
2018-01-27 01:00:00 5.6 5 Norte 19 Norte 0 -- -- 77
2018-01-27 00:00:00 4.6 5 Norte 10 Norte 0 -- -- 82
2018-01-26 23:00:00 5 6 Noroeste 10 Noroeste 0 -- -- 82
2018-01-26 22:00:00 6.3 5 Norte 9 Norte 0 -- -- 77
2018-01-26 21:00:00 7.4 4 Noroeste 8 Noroeste 0 -- -- 73
2018-01-26 20:00:00 9.3 4 Noroeste 17 Norte 0 -- -- 64
2018-01-26 19:00:00 11.9 9 Norte 20 Norte 0 -- -- 53
2018-01-26 18:00:00 14.5 10 Norte 20 Norte 0 -- -- 44
2018-01-26 17:00:00 15.1 10 Norte 24 Norte 0 -- -- 43
2018-01-26 16:00:00 14.3 8 Norte 17 Norte 0 -- -- 50
2018-01-26 15:00:00 14.4 9 Norte 18 Oeste 0 -- -- 51
2018-01-26 14:00:00 13.2 5 Norte 12 Nordeste 0 -- -- 58
2018-01-26 13:00:00 12.6 5 Noroeste 17 Oeste 0 -- -- 64
2018-01-26 12:00:00 10.4 10 Oeste 19 Noroeste 0 -- -- 75
2018-01-26 11:00:00 8.6 6 Noroeste 18 Noroeste 0 -- -- 80
2018-01-26 10:00:00 7.2 2 Este 18 Oeste 0 -- -- 81
2018-01-26 09:00:00 4.3 7 Sudeste 18 Noroeste 0 -- -- 88
2018-01-26 08:00:00 4.1 2 Norte 10 Norte 0 -- -- 88
2018-01-26 07:00:00 4.4 6 Noroeste 13 Oeste 0 -- -- 90
2018-01-26 06:00:00 4.5 6 Noroeste 14 Oeste 0 -- -- 89
2018-01-26 05:00:00 4.6 10 Noroeste 18 Noroeste 0 -- -- 93
2018-01-26 04:00:00 3.2 4 Noroeste 11 Oeste 0 -- -- 94
2018-01-26 03:00:00 4.6 8 Oeste 14 Noroeste 0 -- -- 92
2018-01-26 02:00:00 5.2 13 Noroeste 23 Noroeste 0 -- -- 94
2018-01-26 01:00:00 5.7 5 Noroeste 12 Oeste 0 -- -- 92
2018-01-26 00:00:00 7.1 10 Noroeste 17 Noroeste 0 -- -- 91
2018-01-25 23:00:00 7.7 9 Noroeste 17 Noroeste 0 -- -- 92
2018-01-25 22:00:00 8.4 10 Noroeste 15 Oeste 0 -- -- 92
2018-01-25 21:00:00 9.4 7 Oeste 15 Oeste 0 -- -- 95
2018-01-25 20:00:00 10.3 5 Oeste 11 Oeste 0 -- -- 94
2018-01-25 19:00:00 11.1 8 Oeste 17 Noroeste 0.2 -- -- 94
2018-01-25 18:00:00 11.8 12 Oeste 24 Oeste 1 -- -- 95
2018-01-25 17:00:00 11.9 9 Oeste 18 Sudoeste 0.2 -- -- 96
2018-01-25 16:00:00 12.1 9 Sudoeste 26 Sudoeste 0 -- -- 92
2018-01-25 15:00:00 12.9 9 Oeste 23 Oeste 0 -- -- 85
2018-01-25 14:00:00 12.9 15 Oeste 23 Oeste 0 -- -- 78
2018-01-25 13:00:00 11 13 Oeste 20 Oeste 0 -- -- 85
2018-01-25 12:00:00 10.2 11 Oeste 17 Oeste 0 -- -- 88
2018-01-25 11:00:00 9.4 2 Noroeste 5 Noroeste 0 -- -- 99
2018-01-25 10:00:00 7.1 0 Calma 9 Noroeste 0 -- -- 99
2018-01-25 09:00:00 7.2 4 Noroeste 10 Noroeste 0 -- -- 98
2018-01-25 08:00:00 9 4 Noroeste 6 Noroeste 0 -- -- 98
2018-01-25 07:00:00 9.5 0 Calma 3 Sudeste 0 -- -- 98
2018-01-25 06:00:00 9.7 0 Calma 4 Este 0 -- -- 98
2018-01-25 05:00:00 9 2 Este 6 Sudeste 0 -- -- 99
2018-01-25 04:00:00 8 3 Sudeste 6 Sudeste 0 -- -- 98
2018-01-25 03:00:00 7.3 0 Calma 4 Norte 0 -- -- 97
2018-01-25 02:00:00 8.4 3 Noroeste 7 Norte 0 -- -- 96
2018-01-25 01:00:00 9 4 Noroeste 9 Noroeste 0 -- -- 97
2018-01-25 00:00:00 9.2 4 Noroeste 9 Norte 0 -- -- 96
2018-01-24 23:00:00 10.2 8 Noroeste 12 Noroeste 0 -- -- 95
2018-01-24 22:00:00 9.8 3 Noroeste 7 Oeste 0 -- -- 92
2018-01-24 21:00:00 10.8 0 Calma 7 Noroeste 0 -- -- 90
2018-01-24 20:00:00 12.4 3 Oeste 9 Oeste 0 -- -- 87
2018-01-24 19:00:00 13.8 5 Oeste 11 Oeste 0 -- -- 82
2018-01-24 18:00:00 16 8 Oeste 16 Oeste 0 -- -- 76
2018-01-24 17:00:00 17.9 10 Oeste 17 Oeste 0 -- -- 70
2018-01-24 16:00:00 17.9 9 Noroeste 16 Oeste 0 -- -- 70
2018-01-24 15:00:00 18.1 9 Oeste 17 Oeste 0 -- -- 70
2018-01-24 14:00:00 16.9 5 Norte 10 Norte 0 -- -- 69
2018-01-24 13:00:00 15.5 3 Noroeste 8 Noroeste 0 -- -- 73
2018-01-24 12:00:00 13.9 3 Nordeste 9 Este 0 -- -- 77
2018-01-24 11:00:00 11.1 4 Nordeste 7 Este 0 -- -- 94
2018-01-24 10:00:00 6.9 0 Calma 6 Oeste 0 -- -- 100
2018-01-24 09:00:00 4.1 2 Noroeste 5 Noroeste 0 -- -- 99
2018-01-24 08:00:00 4.6 3 Noroeste 10 Noroeste 0 -- -- 98
2018-01-24 07:00:00 4.5 3 Noroeste 6 Noroeste 0 -- -- 99
2018-01-24 06:00:00 4.5 2 Noroeste 4 Noroeste 0 -- -- 98
2018-01-24 05:00:00 4.5 4 Oeste 8 Noroeste 0 -- -- 97
2018-01-24 04:00:00 4.1 3 Noroeste 4 Oeste 0 -- -- 97
2018-01-24 03:00:00 5 2 Noroeste 6 Noroeste 0 -- -- 97
2018-01-24 02:00:00 5.1 5 Noroeste 8 Noroeste 0 -- -- 96
2018-01-24 01:00:00 5.7 2 Noroeste 4 Noroeste 0 -- -- 95
2018-01-24 00:00:00 6.3 2 Noroeste 4 Noroeste 0 -- -- 95
2018-01-23 23:00:00 7 0 Calma 4 Norte 0 -- -- 92
2018-01-23 22:00:00 7.8 2 Noroeste 8 Noroeste 0 -- -- 90
2018-01-23 21:00:00 9.5 3 Noroeste 5 Noroeste 0 -- -- 87
2018-01-23 20:00:00 11.7 3 Noroeste 6 Noroeste 0 -- -- 81
2018-01-23 19:00:00 15 5 Noroeste 12 Sur 0 -- -- 74
2018-01-23 18:00:00 19.2 2 Sur 8 Sur 0 -- -- 55
2018-01-23 17:00:00 19.6 4 Sur 9 Oeste 0 -- -- 54
2018-01-23 16:00:00 19.2 2 Oeste 6 Norte 0 -- -- 56
2018-01-23 15:00:00 18.3 4 Este 12 Norte 0 -- -- 58
2018-01-23 14:00:00 17.2 3 Nordeste 12 Este 0 -- -- 62
2018-01-23 13:00:00 15.6 5 Norte 10 Noroeste 0 -- -- 65
2018-01-23 12:00:00 12.9 2 Noroeste 6 Noroeste 0 -- -- 79
2018-01-23 11:00:00 10.4 4 Norte 9 Norte 0 -- -- 89
2018-01-23 10:00:00 7.3 3 Noroeste 8 Oeste 0 -- -- 99
2018-01-23 09:00:00 4.6 3 Noroeste 6 Oeste 0 -- -- 98
2018-01-23 08:00:00 4.2 2 Noroeste 8 Noroeste 0 -- -- 97
2018-01-23 07:00:00 4.4 5 Noroeste 8 Noroeste 0 -- -- 96
2018-01-23 06:00:00 5.1 0 Calma 5 Noroeste 0 -- -- 95
2018-01-23 05:00:00 5.6 2 Noroeste 6 Noroeste 0 -- -- 96
2018-01-23 04:00:00 6.2 2 Sudoeste 9 Noroeste 0 -- -- 95
2018-01-23 03:00:00 6.8 3 Noroeste 7 Norte 0 -- -- 95
2018-01-23 02:00:00 7.1 4 Noroeste 6 Noroeste 0 -- -- 95
2018-01-23 01:00:00 7.5 0 Calma 7 Nordeste 0 -- -- 95
2018-01-23 00:00:00 7.6 0 Calma 5 Este 0 -- -- 96
2018-01-22 23:00:00 8.1 0 Calma 4 Noroeste 0 -- -- 93
2018-01-22 22:00:00 9.6 3 Norte 6 Noroeste 0 -- -- 93
2018-01-22 21:00:00 10.5 4 Noroeste 9 Noroeste 0 -- -- 89
2018-01-22 20:00:00 12.8 7 Noroeste 10 Noroeste 0 -- -- 83
2018-01-22 19:00:00 15.2 7 Oeste 12 Oeste 0 -- -- 75
2018-01-22 18:00:00 18 9 Oeste 17 Oeste 0 -- -- 65
2018-01-22 17:00:00 20.2 9 Oeste 15 Sudoeste 0 -- -- 58
2018-01-22 16:00:00 19.6 3 Oeste 6 Oeste 0 -- -- 58
2018-01-22 15:00:00 18.3 3 Noroeste 6 Oeste 0 -- -- 62
2018-01-22 14:00:00 16.7 4 Oeste 8 Noroeste 0 -- -- 70
2018-01-22 13:00:00 14.3 4 Norte 9 Norte 0 -- -- 77
2018-01-22 12:00:00 12.7 4 Norte 10 Nordeste 0 -- -- 81
2018-01-22 11:00:00 10.6 4 Este 6 Este 0 -- -- 99
2018-01-22 10:00:00 6.8 2 Noroeste 4 Noroeste 0 -- -- 100
2018-01-22 09:00:00 4.6 0 Calma 5 Norte 0 -- -- 99
2018-01-22 08:00:00 4.7 4 Noroeste 8 Norte 0 -- -- 99
2018-01-22 07:00:00 4.5 3 Noroeste 5 Noroeste 0 -- -- 98
2018-01-22 06:00:00 4.9 0 Calma 8 Noroeste 0 -- -- 98
2018-01-22 05:00:00 5 8 Noroeste 10 Noroeste 0 -- -- 98
2018-01-22 04:00:00 5.8 3 Noroeste 8 Noroeste 0 -- -- 97
2018-01-22 03:00:00 5.2 3 Noroeste 7 Noroeste 0 -- -- 96
2018-01-22 02:00:00 5.9 0 Calma 6 Noroeste 0 -- -- 96
2018-01-22 01:00:00 6.5 2 Noroeste 5 Noroeste 0 -- -- 96
2018-01-22 00:00:00 7.1 0 Calma 5 Oeste 0 -- -- 95